Time;durP1;ratioP1;P1;durP2;ratioP2;P2;SDS_P1;SDS_P2;PMS_P1;PMS_P2;Temp;Humidity;BMP_temperature;BMP_pressure;BME280_temperature;BME280_humidity;BME280_pressure;Samples;Min_cycle;Max_cycle;Signal;HPM_P1;HPM_P2
2023/06/20 00:00:08;;;;;;;22.60;8.20;;;;;;;;;;5032440;28;99288;-74
2023/06/20 00:02:35;;;;;;;17.65;8.43;;;;;;;;;;5032332;28;102593;-74
2023/06/20 00:05:03;;;;;;;17.05;8.48;;;;;;;;;;5032158;28;98483;-74
2023/06/20 00:07:30;;;;;;;20.08;8.68;;;;;;;;;;5032004;28;99060;-74
2023/06/20 00:09:56;;;;;;;11.48;7.97;;;;;;;;;;5031416;28;99545;-74
2023/06/20 00:12:22;;;;;;;12.77;7.90;;;;;;;;;;5032650;28;97974;-74
2023/06/20 00:14:49;;;;;;;12.05;7.90;;;;;;;;;;5034931;28;98602;-74
2023/06/20 00:17:15;;;;;;;12.70;7.80;;;;;;;;;;5031813;28;98518;-74
2023/06/20 00:19:41;;;;;;;10.75;8.60;;;;;;;;;;5031811;28;100564;-74
2023/06/20 00:22:08;;;;;;;14.25;8.63;;;;;;;;;;5031920;28;99482;-74
2023/06/20 00:24:34;;;;;;;13.32;8.40;;;;;;;;;;5031844;27;98577;-74
2023/06/20 00:27:01;;;;;;;19.38;8.63;;;;;;;;;;5031891;27;99514;-74
2023/06/20 00:29:28;;;;;;;13.85;8.27;;;;;;;;;;5031107;28;99853;-74
2023/06/20 00:31:54;;;;;;;15.65;8.40;;;;;;;;;;5032087;27;98505;-74
2023/06/20 00:34:21;;;;;;;14.13;7.55;;;;;;;;;;5035176;28;100528;-74
2023/06/20 00:36:47;;;;;;;10.77;8.00;;;;;;;;;;5032516;28;97990;-74
2023/06/20 00:39:14;;;;;;;15.60;8.00;;;;;;;;;;5031782;28;98437;-74
2023/06/20 00:41:40;;;;;;;12.02;7.53;;;;;;;;;;5031704;28;100545;-74
2023/06/20 00:44:07;;;;;;;15.57;8.20;;;;;;;;;;5030812;28;99520;-74
2023/06/20 00:46:40;;;;;;;13.02;8.43;;;;;;;;;;5031430;28;100033;-74
2023/06/20 00:49:07;;;;;;;14.05;7.93;;;;;;;;;;5030587;27;99507;-74
2023/06/20 00:51:34;;;;;;;35.33;8.32;;;;;;;;;;5031151;28;98429;-74
2023/06/20 00:54:01;;;;;;;14.80;7.75;;;;;;;;;;5031400;27;99387;-74
2023/06/20 00:56:28;;;;;;;15.77;7.57;;;;;;;;;;5034325;28;99712;-74
2023/06/20 00:58:54;;;;;;;20.35;7.75;;;;;;;;;;5031327;28;99677;-74
2023/06/20 01:01:21;;;;;;;11.77;8.18;;;;;;;;;;5031891;28;101622;-74
2023/06/20 01:03:48;;;;;;;12.85;7.07;;;;;;;;;;5013515;28;98551;-74
2023/06/20 01:06:21;;;;;;;12.05;7.20;;;;;;;;;;5030832;27;99113;-74
2023/06/20 01:08:50;;;;;;;8.18;6.57;;;;;;;;;;5030509;28;100390;-74
2023/06/20 01:11:25;;;;;;;10.77;7.50;;;;;;;;;;5031178;28;98538;-74
2023/06/20 01:14:21;;;;;;;10.88;7.10;;;;;;;;;;5031631;28;99355;-74
2023/06/20 01:16:57;;;;;;;10.13;7.07;;;;;;;;;;5016706;28;100499;-74
2023/06/20 01:19:43;;;;;;;13.73;8.07;;;;;;;;;;5034570;28;98573;-74
2023/06/20 01:22:13;;;;;;;14.27;7.90;;;;;;;;;;5031154;28;100794;-74
2023/06/20 01:24:46;;;;;;;10.63;7.65;;;;;;;;;;5031075;28;98896;-74
2023/06/20 01:27:18;;;;;;;22.08;8.27;;;;;;;;;;5030774;28;99155;-74
2023/06/20 01:29:59;;;;;;;15.82;8.48;;;;;;;;;;5030663;28;99714;-73
2023/06/20 01:32:27;;;;;;;14.07;8.60;;;;;;;;;;5030686;28;98524;-74
2023/06/20 01:35:07;;;;;;;13.05;7.40;;;;;;;;;;5030574;28;99301;-74
2023/06/20 01:37:35;;;;;;;11.45;7.50;;;;;;;;;;5030187;28;101325;-74
2023/06/20 01:40:02;;;;;;;12.88;7.63;;;;;;;;;;5030975;28;98470;-74
2023/06/20 01:42:29;;;;;;;12.52;7.93;;;;;;;;;;5033485;28;99841;-74
2023/06/20 01:44:58;;;;;;;11.73;8.02;;;;;;;;;;5012503;28;98602;-74
2023/06/20 01:47:25;;;;;;;11.10;8.15;;;;;;;;;;5030546;28;99343;-74
2023/06/20 01:49:52;;;;;;;13.63;7.75;;;;;;;;;;5030127;28;99672;-74
2023/06/20 01:52:20;;;;;;;10.35;7.40;;;;;;;;;;5031023;27;97875;-74
2023/06/20 01:54:47;;;;;;;12.60;7.63;;;;;;;;;;5030491;27;98679;-74
2023/06/20 01:57:15;;;;;;;14.02;7.03;;;;;;;;;;5029789;27;99903;-74
2023/06/20 01:59:42;;;;;;;13.52;7.32;;;;;;;;;;5029762;28;99219;-74
2023/06/20 02:02:08;;;;;;;15.80;7.20;;;;;;;;;;5029408;27;99906;-73
2023/06/20 02:04:35;;;;;;;14.63;7.93;;;;;;;;;;5033177;28;99619;-74
2023/06/20 02:07:03;;;;;;;15.27;8.38;;;;;;;;;;5030847;28;100287;-74
2023/06/20 02:09:30;;;;;;;13.73;8.35;;;;;;;;;;5029694;28;99530;-75
2023/06/20 02:11:56;;;;;;;17.77;8.13;;;;;;;;;;5030143;28;98565;-75
2023/06/20 02:14:24;;;;;;;18.50;7.55;;;;;;;;;;5030292;28;99464;-75
2023/06/20 02:16:51;;;;;;;16.92;7.45;;;;;;;;;;5029921;27;100091;-75
2023/06/20 02:19:18;;;;;;;18.80;8.00;;;;;;;;;;5030692;27;98600;-75
2023/06/20 02:21:45;;;;;;;12.00;8.38;;;;;;;;;;5030585;28;100391;-75
2023/06/20 02:24:13;;;;;;;13.10;8.07;;;;;;;;;;5029655;28;101311;-75
2023/06/20 02:26:42;;;;;;;13.10;7.72;;;;;;;;;;5033277;27;98537;-75
2023/06/20 02:29:09;;;;;;;15.23;8.02;;;;;;;;;;5029816;28;99551;-75
2023/06/20 02:31:38;;;;;;;12.27;8.55;;;;;;;;;;5029807;28;98531;-75
2023/06/20 02:34:06;;;;;;;10.77;7.70;;;;;;;;;;5030373;28;100463;-75
2023/06/20 02:36:33;;;;;;;15.35;8.20;;;;;;;;;;5029632;28;100150;-75
2023/06/20 02:39:01;;;;;;;10.02;8.00;;;;;;;;;;5011893;28;98562;-75
2023/06/20 02:41:27;;;;;;;13.95;7.78;;;;;;;;;;5030769;28;99358;-75
2023/06/20 02:43:53;;;;;;;24.77;8.38;;;;;;;;;;5028977;28;99846;-75
2023/06/20 02:46:29;;;;;;;11.65;8.05;;;;;;;;;;5032971;28;98602;-75
2023/06/20 02:49:01;;;;;;;18.00;8.43;;;;;;;;;;5029021;28;101426;-75
2023/06/20 02:51:31;;;;;;;11.25;8.00;;;;;;;;;;5029784;28;98560;-75
2023/06/20 02:53:57;;;;;;;12.38;8.15;;;;;;;;;;5029700;28;99981;-74
2023/06/20 02:56:25;;;;;;;13.45;8.10;;;;;;;;;;5028785;28;99588;-75
2023/06/20 02:58:52;;;;;;;11.05;7.57;;;;;;;;;;5029384;28;98498;-75
2023/06/20 03:01:23;;;;;;;11.80;8.00;;;;;;;;;;5029764;28;99123;-74
2023/06/20 03:03:49;;;;;;;;;;;;;;;;;;5029662;28;99436;-72
2023/06/20 03:06:16;;;;;;;12.85;7.88;;;;;;;;;;5030897;28;118468;-75
2023/06/20 03:08:44;;;;;;;16.08;8.45;;;;;;;;;;5032491;28;98971;-75
2023/06/20 03:11:10;;;;;;;9.90;7.82;;;;;;;;;;5029137;28;98810;-75
2023/06/20 03:13:37;;;;;;;9.02;7.65;;;;;;;;;;5031710;27;100210;-75
2023/06/20 03:16:08;;;;;;;17.02;8.55;;;;;;;;;;5014692;28;99639;-75
2023/06/20 03:18:38;;;;;;;14.98;8.25;;;;;;;;;;5032792;28;98614;-74
2023/06/20 03:21:04;;;;;;;12.75;8.32;;;;;;;;;;5015523;28;100293;-75
2023/06/20 03:23:51;;;;;;;14.13;9.10;;;;;;;;;;5032659;28;99093;-75
2023/06/20 03:26:17;;;;;;;18.13;8.95;;;;;;;;;;5033509;28;98511;-74
2023/06/20 03:28:43;;;;;;;22.67;9.50;;;;;;;;;;5032389;28;99252;-74
2023/06/20 03:31:10;;;;;;;14.07;8.77;;;;;;;;;;5036129;27;98817;-74
2023/06/20 03:33:36;;;;;;;14.55;8.50;;;;;;;;;;5032610;28;98509;-74
2023/06/20 03:36:03;;;;;;;12.73;9.02;;;;;;;;;;5032589;27;100603;-74
2023/06/20 03:38:29;;;;;;;13.80;8.70;;;;;;;;;;5032076;27;99586;-74
2023/06/20 03:40:55;;;;;;;15.02;8.43;;;;;;;;;;5032694;28;99941;-74
2023/06/20 03:43:22;;;;;;;14.63;9.13;;;;;;;;;;5032203;27;99516;-74
2023/06/20 03:45:48;;;;;;;15.50;8.65;;;;;;;;;;5032687;28;98577;-74
2023/06/20 03:48:14;;;;;;;14.02;8.40;;;;;;;;;;5032411;28;99355;-74
2023/06/20 03:50:41;;;;;;;16.75;8.50;;;;;;;;;;5031457;28;99885;-74
2023/06/20 03:53:07;;;;;;;12.95;8.35;;;;;;;;;;5035778;27;98618;-74
2023/06/20 03:55:34;;;;;;;18.63;8.98;;;;;;;;;;5032248;28;98827;-74
2023/06/20 03:58:00;;;;;;;25.27;9.27;;;;;;;;;;5032013;28;98653;-74
2023/06/20 04:00:26;;;;;;;12.63;8.18;;;;;;;;;;5032498;28;100285;-74
2023/06/20 04:02:53;;;;;;;13.43;8.65;;;;;;;;;;5031068;28;100313;-75
2023/06/20 04:05:19;;;;;;;18.10;9.45;;;;;;;;;;5013965;28;98844;-74
2023/06/20 04:07:45;;;;;;;19.30;9.25;;;;;;;;;;5032059;28;99302;-75
2023/06/20 04:10:12;;;;;;;17.45;8.45;;;;;;;;;;5031516;27;99565;-75
2023/06/20 04:12:40;;;;;;;14.27;8.25;;;;;;;;;;5032241;27;98539;-74
2023/06/20 04:15:07;;;;;;;15.18;8.77;;;;;;;;;;5016797;28;99270;-75
2023/06/20 04:17:33;;;;;;;14.45;8.18;;;;;;;;;;5014081;28;98599;-75
2023/06/20 04:20:00;;;;;;;15.25;8.98;;;;;;;;;;5032342;28;98876;-75
2023/06/20 04:22:26;;;;;;;15.85;9.57;;;;;;;;;;5031554;28;99929;-75
2023/06/20 04:24:53;;;;;;;21.38;9.15;;;;;;;;;;5030853;28;98536;-75
2023/06/20 04:27:20;;;;;;;17.55;9.23;;;;;;;;;;5029846;27;99400;-75
2023/06/20 04:29:46;;;;;;;14.88;8.88;;;;;;;;;;5031102;27;99597;-75
2023/06/20 04:32:13;;;;;;;25.55;9.13;;;;;;;;;;5031871;27;98561;-74
2023/06/20 04:34:39;;;;;;;18.90;9.95;;;;;;;;;;5034488;28;99271;-75
2023/06/20 04:37:05;;;;;;;14.30;8.93;;;;;;;;;;5031431;28;98529;-75
2023/06/20 04:39:32;;;;;;;40.95;8.95;;;;;;;;;;5031615;28;99248;-75
2023/06/20 04:41:58;;;;;;;24.30;8.63;;;;;;;;;;5031138;28;99576;-75
2023/06/20 04:44:24;;;;;;;21.17;8.77;;;;;;;;;;5032128;27;97728;-75
2023/06/20 04:46:55;;;;;;;14.63;9.00;;;;;;;;;;5031536;27;99511;-74
2023/06/20 04:49:21;;;;;;;19.00;8.30;;;;;;;;;;5030579;28;99584;-75
2023/06/20 04:51:48;;;;;;;44.65;9.00;;;;;;;;;;5031211;28;99239;-75
2023/06/20 04:54:14;;;;;;;18.27;8.38;;;;;;;;;;5031224;28;100149;-75
2023/06/20 04:56:40;;;;;;;16.40;9.00;;;;;;;;;;5034012;28;99583;-75
2023/06/20 04:59:07;;;;;;;21.42;9.55;;;;;;;;;;5031310;28;99052;-75
2023/06/20 05:01:34;;;;;;;17.52;9.18;;;;;;;;;;5030736;28;99730;-75
2023/06/20 05:04:03;;;;;;;18.33;9.02;;;;;;;;;;5013015;28;98803;-74
2023/06/20 05:06:30;;;;;;;14.73;9.70;;;;;;;;;;5031270;28;98471;-75
2023/06/20 05:08:56;;;;;;;16.02;9.70;;;;;;;;;;5030979;28;99213;-75
2023/06/20 05:11:22;;;;;;;19.15;8.82;;;;;;;;;;5031083;28;98456;-75
2023/06/20 05:13:49;;;;;;;14.95;8.90;;;;;;;;;;5030755;28;99242;-74
2023/06/20 05:16:15;;;;;;;12.55;9.27;;;;;;;;;;5029733;28;100269;-75
2023/06/20 05:18:41;;;;;;;11.27;9.05;;;;;;;;;;5034127;28;98961;-75
2023/06/20 05:21:10;;;;;;;14.52;8.68;;;;;;;;;;5030491;28;99666;-74
2023/06/20 05:23:37;;;;;;;14.98;8.70;;;;;;;;;;5031261;28;98484;-75
2023/06/20 05:26:03;;;;;;;17.23;9.02;;;;;;;;;;5030737;27;99561;-75
2023/06/20 05:28:29;;;;;;;12.85;8.63;;;;;;;;;;5030095;28;99547;-75
2023/06/20 05:30:56;;;;;;;13.15;8.10;;;;;;;;;;5012806;28;98650;-74
2023/06/20 05:33:22;;;;;;;15.98;8.85;;;;;;;;;;5013626;28;99394;-75
2023/06/20 05:35:49;;;;;;;15.88;8.48;;;;;;;;;;5030515;27;100532;-75
2023/06/20 05:38:16;;;;;;;14.43;8.55;;;;;;;;;;5030800;27;98551;-75
2023/06/20 05:40:43;;;;;;;13.15;8.57;;;;;;;;;;5033461;28;99174;-74
2023/06/20 05:43:09;;;;;;;24.90;8.98;;;;;;;;;;5012686;28;98660;-75
2023/06/20 05:45:36;;;;;;;13.63;8.27;;;;;;;;;;5030586;28;100213;-75
2023/06/20 05:48:03;;;;;;;16.52;8.93;;;;;;;;;;5029896;28;99855;-75
2023/06/20 05:50:30;;;;;;;19.38;8.93;;;;;;;;;;5030215;27;98593;-74
2023/06/20 05:52:57;;;;;;;11.57;7.95;;;;;;;;;;5030360;28;99206;-74
2023/06/20 05:55:23;;;;;;;14.68;8.07;;;;;;;;;;5029839;28;99702;-74
2023/06/20 05:57:49;;;;;;;15.45;7.78;;;;;;;;;;5030837;28;97837;-74
2023/06/20 06:00:16;;;;;;;13.43;9.10;;;;;;;;;;5012770;28;99785;-74
2023/06/20 06:02:45;;;;;;;22.10;8.88;;;;;;;;;;5033709;28;100594;-75
2023/06/20 06:05:12;;;;;;;15.60;9.63;;;;;;;;;;5030041;28;100397;-74
2023/06/20 06:07:39;;;;;;;19.63;8.48;;;;;;;;;;5029867;28;99652;-74
2023/06/20 06:10:07;;;;;;;17.58;8.75;;;;;;;;;;5030100;27;98761;-74
2023/06/20 06:12:37;;;;;;;17.65;8.98;;;;;;;;;;5012240;27;98526;-74
2023/06/20 06:15:04;;;;;;;13.00;8.70;;;;;;;;;;5029654;28;99820;-74
2023/06/20 06:17:31;;;;;;;19.92;9.70;;;;;;;;;;5011993;28;99897;-74
2023/06/20 06:19:57;;;;;;;21.33;9.27;;;;;;;;;;5030501;27;100202;-74
2023/06/20 06:22:24;;;;;;;17.85;9.00;;;;;;;;;;5028778;28;98927;-74
2023/06/20 06:24:53;;;;;;;16.10;8.98;;;;;;;;;;5033140;28;98564;-74
2023/06/20 06:27:19;;;;;;;21.33;9.77;;;;;;;;;;5029061;28;100177;-74
2023/06/20 06:29:46;;;;;;;12.25;9.32;;;;;;;;;;5029396;27;99302;-74
2023/06/20 06:32:13;;;;;;;19.15;9.63;;;;;;;;;;5029839;28;99872;-74
2023/06/20 06:34:41;;;;;;;15.57;9.45;;;;;;;;;;5029605;27;100852;-74
2023/06/20 06:37:07;;;;;;;17.20;9.60;;;;;;;;;;5029763;28;98558;-75
2023/06/20 06:39:34;;;;;;;18.52;9.52;;;;;;;;;;5029704;28;99458;-74
2023/06/20 06:42:00;;;;;;;28.02;10.02;;;;;;;;;;5029064;28;99383;-74
2023/06/20 06:44:27;;;;;;;14.80;8.75;;;;;;;;;;5014171;28;98610;-74
2023/06/20 06:46:55;;;;;;;16.40;9.57;;;;;;;;;;5030016;27;98749;-74
2023/06/20 06:49:22;;;;;;;17.08;10.15;;;;;;;;;;5036264;27;98559;-74
2023/06/20 06:51:49;;;;;;;20.00;9.63;;;;;;;;;;5035153;27;99477;-74
2023/06/20 06:54:16;;;;;;;24.52;10.38;;;;;;;;;;5017690;28;100404;-74
2023/06/20 06:56:43;;;;;;;17.55;10.23;;;;;;;;;;5035560;28;98570;-75
2023/06/20 06:59:09;;;;;;;15.60;9.70;;;;;;;;;;5035833;27;100342;-74
2023/06/20 07:01:36;;;;;;;15.27;9.48;;;;;;;;;;5035736;27;100015;-74
2023/06/20 07:04:03;;;;;;;15.35;9.57;;;;;;;;;;5036580;27;99509;-74
2023/06/20 07:06:30;;;;;;;18.23;10.23;;;;;;;;;;5038750;27;99145;-74
2023/06/20 07:08:56;;;;;;;25.65;10.80;;;;;;;;;;5035481;27;98519;-74
2023/06/20 07:11:24;;;;;;;19.02;10.05;;;;;;;;;;5035884;28;99324;-74
2023/06/20 07:13:51;;;;;;;18.83;9.80;;;;;;;;;;5034911;28;99546;-74
2023/06/20 07:16:17;;;;;;;12.55;10.23;;;;;;;;;;5035747;27;98991;-74
2023/06/20 07:18:44;;;;;;;15.85;10.45;;;;;;;;;;5033892;27;100232;-75
2023/06/20 07:21:10;;;;;;;14.93;9.82;;;;;;;;;;5035220;28;99756;-75
2023/06/20 07:23:36;;;;;;;13.18;10.30;;;;;;;;;;5036056;28;98542;-74
2023/06/20 07:26:03;;;;;;;18.02;11.10;;;;;;;;;;5035306;27;99296;-74
2023/06/20 07:28:30;;;;;;;17.92;10.95;;;;;;;;;;5037450;27;99858;-74
2023/06/20 07:30:56;;;;;;;19.73;11.50;;;;;;;;;;5017458;28;100641;-74
2023/06/20 07:33:23;;;;;;;18.23;11.20;;;;;;;;;;5034784;27;99333;-74
2023/06/20 07:35:50;;;;;;;21.05;11.82;;;;;;;;;;5018242;28;97771;-74
2023/06/20 07:38:17;;;;;;;14.13;11.38;;;;;;;;;;5034825;27;98791;-74
2023/06/20 07:40:45;;;;;;;20.80;12.20;;;;;;;;;;5017159;28;99546;-74
2023/06/20 07:43:12;;;;;;;18.30;11.07;;;;;;;;;;5034370;28;99310;-75
2023/06/20 07:45:38;;;;;;;18.30;12.05;;;;;;;;;;5035425;28;99718;-74
2023/06/20 07:48:05;;;;;;;16.83;11.65;;;;;;;;;;5034853;28;99789;-74
2023/06/20 07:50:31;;;;;;;15.68;10.40;;;;;;;;;;5038210;27;98643;-74
2023/06/20 07:52:58;;;;;;;26.17;9.55;;;;;;;;;;5034925;27;101987;-74
2023/06/20 07:55:24;;;;;;;15.38;9.80;;;;;;;;;;5035314;28;98634;-75
2023/06/20 07:57:57;;;;;;;13.23;10.52;;;;;;;;;;5035188;27;99196;-74
2023/06/20 08:00:25;;;;;;;14.15;10.40;;;;;;;;;;5030960;28;98756;-74
2023/06/20 08:02:52;;;;;;;17.63;10.10;;;;;;;;;;5031452;28;98603;-74
2023/06/20 08:05:18;;;;;;;20.30;10.40;;;;;;;;;;5031486;27;99784;-75
2023/06/20 08:07:45;;;;;;;17.50;9.52;;;;;;;;;;5030769;28;101305;-74
2023/06/20 08:10:15;;;;;;;11.50;8.20;;;;;;;;;;5032290;28;98540;-74
2023/06/20 08:12:42;;;;;;;16.08;7.45;;;;;;;;;;5035269;28;99302;-74
2023/06/20 08:15:09;;;;;;;15.25;8.57;;;;;;;;;;5031718;28;98609;-75
2023/06/20 08:17:36;;;;;;;16.98;8.55;;;;;;;;;;5031737;27;99546;-74
2023/06/20 08:20:06;;;;;;;13.50;7.80;;;;;;;;;;5031777;28;98585;-75
2023/06/20 08:22:33;;;;;;;13.47;6.93;;;;;;;;;;5032167;28;98710;-75
2023/06/20 08:24:59;;;;;;;14.18;6.38;;;;;;;;;;5032521;28;99178;-74
2023/06/20 08:27:26;;;;;;;9.48;6.38;;;;;;;;;;5031294;27;99527;-73
2023/06/20 08:29:53;;;;;;;20.58;7.10;;;;;;;;;;5031842;27;98542;-74
2023/06/20 08:32:19;;;;;;;9.88;6.97;;;;;;;;;;5031736;27;102196;-74
2023/06/20 08:34:49;;;;;;;13.52;8.73;;;;;;;;;;5034849;27;99894;-74
2023/06/20 08:37:18;;;;;;;11.05;7.82;;;;;;;;;;5031432;28;99346;-74
2023/06/20 08:39:44;;;;;;;24.77;8.97;;;;;;;;;;5031223;28;99700;-74
2023/06/20 08:42:11;;;;;;;10.18;6.88;;;;;;;;;;5031796;28;98490;-74
2023/06/20 08:44:37;;;;;;;14.07;8.30;;;;;;;;;;5031395;27;99144;-74
2023/06/20 08:47:21;;;;;;;15.15;8.68;;;;;;;;;;5030948;27;99564;-74
2023/06/20 08:49:48;;;;;;;12.27;6.47;;;;;;;;;;5032578;28;97772;-75
2023/06/20 08:52:18;;;;;;;12.65;6.68;;;;;;;;;;5013786;28;98881;-74
2023/06/20 08:54:44;;;;;;;9.77;7.28;;;;;;;;;;5033942;28;99739;-74
2023/06/20 08:57:11;;;;;;;13.68;8.00;;;;;;;;;;5030831;28;99172;-75
2023/06/20 08:59:37;;;;;;;14.32;8.60;;;;;;;;;;5031038;28;99690;-74
2023/06/20 09:02:04;;;;;;;12.98;7.72;;;;;;;;;;5031854;27;98575;-74
2023/06/20 09:04:30;;;;;;;8.82;7.93;;;;;;;;;;5031331;28;99327;-74
2023/06/20 09:06:56;;;;;;;9.88;6.90;;;;;;;;;;5030724;27;100007;-74
2023/06/20 09:09:23;;;;;;;7.72;4.05;;;;;;;;;;5031605;27;98544;-74
2023/06/20 09:11:52;;;;;;;8.27;4.55;;;;;;;;;;5030943;27;99917;-75
2023/06/20 09:14:18;;;;;;;7.30;4.85;;;;;;;;;;5031266;27;98941;-74
2023/06/20 09:16:48;;;;;;;8.15;6.15;;;;;;;;;;5034316;28;98546;-74
2023/06/20 09:19:14;;;;;;;13.13;6.90;;;;;;;;;;5030891;28;99786;-74
2023/06/20 09:21:40;;;;;;;6.97;5.80;;;;;;;;;;5030281;28;99281;-75
2023/06/20 09:24:07;;;;;;;6.40;5.47;;;;;;;;;;5030934;28;99921;-75
2023/06/20 09:26:33;;;;;;;10.90;5.93;;;;;;;;;;5030623;28;99565;-75
2023/06/20 09:29:07;;;;;;;7.30;6.25;;;;;;;;;;5031202;28;98527;-74
2023/06/20 09:31:48;;;;;;;7.57;6.43;;;;;;;;;;5030939;28;99440;-74
2023/06/20 09:34:18;;;;;;;11.18;6.10;;;;;;;;;;5030447;28;99527;-74
2023/06/20 09:36:45;;;;;;;8.80;6.20;;;;;;;;;;5031015;27;98589;-74
2023/06/20 09:39:13;;;;;;;11.85;6.45;;;;;;;;;;5033911;28;99214;-74
2023/06/20 09:41:43;;;;;;;9.60;5.43;;;;;;;;;;5029445;28;98657;-74
2023/06/20 09:44:09;;;;;;;7.35;4.80;;;;;;;;;;5030662;28;99207;-74
2023/06/20 09:46:35;;;;;;;5.45;4.60;;;;;;;;;;5030085;28;101331;-74
2023/06/20 09:49:03;;;;;;;7.30;5.00;;;;;;;;;;5030426;28;98503;-74
2023/06/20 09:51:32;;;;;;;9.63;4.10;;;;;;;;;;5031024;28;100249;-74
2023/06/20 09:54:02;;;;;;;7.82;4.85;;;;;;;;;;5012325;28;99567;-74
2023/06/20 09:56:28;;;;;;;9.95;4.53;;;;;;;;;;5031057;28;98631;-74
2023/06/20 09:58:57;;;;;;;5.80;4.47;;;;;;;;;;5030377;28;99319;-73
2023/06/20 10:01:25;;;;;;;8.30;4.27;;;;;;;;;;5032966;28;99682;-74
2023/06/20 10:03:52;;;;;;;11.95;4.90;;;;;;;;;;5030904;28;99158;-74
2023/06/20 10:06:20;;;;;;;5.88;4.43;;;;;;;;;;5030053;28;98545;-73
2023/06/20 10:08:46;;;;;;;13.25;5.32;;;;;;;;;;5030312;28;98526;-74
2023/06/20 10:11:12;;;;;;;11.13;4.75;;;;;;;;;;5029782;28;99237;-74
2023/06/20 10:13:40;;;;;;;16.02;5.70;;;;;;;;;;5030048;28;99561;-74
2023/06/20 10:16:07;;;;;;;6.22;4.57;;;;;;;;;;5029872;28;98599;-74
2023/06/20 10:18:33;;;;;;;18.60;5.95;;;;;;;;;;5029952;28;99408;-74
2023/06/20 10:21:02;;;;;;;9.40;5.78;;;;;;;;;;5030122;28;99479;-74
2023/06/20 10:23:29;;;;;;;8.10;5.33;;;;;;;;;;5032702;28;98530;-74
2023/06/20 10:25:58;;;;;;;11.35;5.60;;;;;;;;;;5029893;28;99913;-74
2023/06/20 10:28:24;;;;;;;8.07;6.30;;;;;;;;;;5029846;28;97775;-74
2023/06/20 10:30:58;;;;;;;8.38;6.45;;;;;;;;;;5030273;27;98698;-74
2023/06/20 10:33:24;;;;;;;5.88;5.30;;;;;;;;;;5029547;28;99655;-74
2023/06/20 10:35:59;;;;;;;12.25;6.55;;;;;;;;;;5011848;28;99263;-74
2023/06/20 10:38:25;;;;;;;7.15;5.38;;;;;;;;;;5030234;28;99798;-74
2023/06/20 10:41:04;;;;;;;11.25;4.95;;;;;;;;;;5029758;28;99633;-74
2023/06/20 10:43:44;;;;;;;7.57;4.57;;;;;;;;;;5030470;28;98450;-74
2023/06/20 10:46:11;;;;;;;7.10;5.80;;;;;;;;;;5032910;28;100300;-74
2023/06/20 10:48:38;;;;;;;7.72;4.35;;;;;;;;;;5030048;28;98863;-75
2023/06/20 10:51:05;;;;;;;7.18;3.85;;;;;;;;;;5029945;28;99321;-75
2023/06/20 10:53:31;;;;;;;10.20;4.15;;;;;;;;;;5029237;28;98925;-74
2023/06/20 10:55:58;;;;;;;7.60;4.60;;;;;;;;;;5030029;27;98662;-74
2023/06/20 10:58:24;;;;;;;3.83;3.45;;;;;;;;;;5029597;28;99678;-74
2023/06/20 11:00:58;;;;;;;4.13;3.38;;;;;;;;;;5029695;28;100525;-75
2023/06/20 11:03:25;;;;;;;20.15;4.55;;;;;;;;;;5029629;28;98606;-74
2023/06/20 11:05:53;;;;;;;14.30;3.58;;;;;;;;;;5032775;27;100387;-75
2023/06/20 11:08:25;;;;;;;3.90;3.42;;;;;;;;;;5029492;28;98530;-75
2023/06/20 11:10:51;;;;;;;3.80;3.20;;;;;;;;;;5029411;28;99404;-74
2023/06/20 11:13:17;;;;;;;3.33;2.95;;;;;;;;;;5029078;28;99565;-74
2023/06/20 11:15:44;;;;;;;7.95;3.60;;;;;;;;;;5029547;27;98489;-74
2023/06/20 11:18:10;;;;;;;4.95;3.30;;;;;;;;;;5029701;28;99185;-74
2023/06/20 11:20:39;;;;;;;8.32;3.15;;;;;;;;;;5010979;28;99499;-74
2023/06/20 11:23:10;;;;;;;4.07;2.90;;;;;;;;;;5029288;28;98492;-74
2023/06/20 11:25:37;;;;;;;3.05;2.85;;;;;;;;;;5029203;28;99202;-74
2023/06/20 11:28:04;;;;;;;4.50;2.65;;;;;;;;;;5032087;28;100589;-74
2023/06/20 11:30:31;;;;;;;7.18;2.95;;;;;;;;;;5029357;28;99238;-74
2023/06/20 11:32:57;;;;;;;10.00;3.83;;;;;;;;;;5029066;27;99443;-74
2023/06/20 11:35:24;;;;;;;10.05;3.20;;;;;;;;;;5032241;28;98559;-74
2023/06/20 11:37:50;;;;;;;3.10;2.67;;;;;;;;;;5032690;28;99365;-75
2023/06/20 11:40:17;;;;;;;7.35;3.22;;;;;;;;;;5032557;28;100534;-74
2023/06/20 11:42:43;;;;;;;6.15;3.20;;;;;;;;;;5033388;28;97818;-74
2023/06/20 11:45:09;;;;;;;9.52;2.92;;;;;;;;;;5032548;27;98472;-74
2023/06/20 11:47:36;;;;;;;7.00;3.38;;;;;;;;;;5031974;28;99692;-74
2023/06/20 11:50:03;;;;;;;4.57;2.88;;;;;;;;;;5035461;28;99520;-74
2023/06/20 11:52:32;;;;;;;5.20;2.70;;;;;;;;;;5032220;27;100226;-75
2023/06/20 11:54:59;;;;;;;5.10;2.70;;;;;;;;;;5032286;28;98524;-74
2023/06/20 11:57:32;;;;;;;5.47;3.05;;;;;;;;;;5032564;28;99710;-74
2023/06/20 11:59:59;;;;;;;3.08;2.78;;;;;;;;;;5032257;28;101056;-74
2023/06/20 12:02:28;;;;;;;4.55;2.65;;;;;;;;;;5032115;27;98490;-74
2023/06/20 12:04:58;;;;;;;3.87;2.63;;;;;;;;;;5032622;28;100391;-74
2023/06/20 12:07:28;;;;;;;6.30;3.08;;;;;;;;;;5032264;28;98812;-74
2023/06/20 12:09:54;;;;;;;3.50;2.80;;;;;;;;;;5032148;27;98518;-74
2023/06/20 12:12:29;;;;;;;4.13;2.67;;;;;;;;;;5035176;27;99223;-74
2023/06/20 12:14:55;;;;;;;6.93;2.50;;;;;;;;;;5030379;27;99452;-74
2023/06/20 12:17:21;;;;;;;3.95;2.88;;;;;;;;;;5031846;28;100196;-75
2023/06/20 12:19:49;;;;;;;3.70;2.60;;;;;;;;;;5031377;28;99569;-74
2023/06/20 12:22:15;;;;;;;4.93;2.45;;;;;;;;;;5031979;28;98551;-75
2023/06/20 12:24:41;;;;;;;3.22;2.63;;;;;;;;;;5032048;27;99185;-74
2023/06/20 12:27:08;;;;;;;5.28;2.55;;;;;;;;;;5031595;28;100731;-74
2023/06/20 12:29:35;;;;;;;2.80;2.60;;;;;;;;;;5031825;27;98627;-74
2023/06/20 12:32:02;;;;;;;10.18;3.08;;;;;;;;;;5032344;28;99345;-76
2023/06/20 12:34:29;;;;;;;3.92;2.95;;;;;;;;;;5034544;27;99808;-75
2023/06/20 12:36:55;;;;;;;10.38;3.20;;;;;;;;;;5013884;28;99246;-74
2023/06/20 12:39:22;;;;;;;6.68;3.05;;;;;;;;;;5030844;27;100369;-74
2023/06/20 12:41:48;;;;;;;6.43;2.90;;;;;;;;;;5013908;28;98653;-75
2023/06/20 12:44:15;;;;;;;11.25;2.50;;;;;;;;;;5031481;28;98850;-73
2023/06/20 12:46:41;;;;;;;6.03;3.45;;;;;;;;;;5030632;27;99573;-73
2023/06/20 12:49:07;;;;;;;4.93;3.35;;;;;;;;;;5031582;27;98751;-74
2023/06/20 12:51:34;;;;;;;5.93;3.28;;;;;;;;;;5014143;28;100242;-73
2023/06/20 12:54:01;;;;;;;2.72;2.30;;;;;;;;;;5030952;28;99501;-74
2023/06/20 12:56:27;;;;;;;6.22;2.88;;;;;;;;;;5035313;28;97749;-73
2023/06/20 12:58:54;;;;;;;5.95;2.78;;;;;;;;;;5031254;28;99648;-74
2023/06/20 13:01:20;;;;;;;5.78;2.80;;;;;;;;;;5013881;28;98534;-74
2023/06/20 13:03:47;;;;;;;10.15;2.60;;;;;;;;;;5013019;28;99255;-73
2023/06/20 13:06:15;;;;;;;2.55;2.30;;;;;;;;;;5030910;28;99985;-73
2023/06/20 13:08:42;;;;;;;4.18;2.50;;;;;;;;;;5031337;28;98529;-74
2023/06/20 13:11:08;;;;;;;3.88;2.50;;;;;;;;;;5031090;28;99234;-74
2023/06/20 13:13:35;;;;;;;2.85;2.60;;;;;;;;;;5031456;28;101349;-74
2023/06/20 13:16:01;;;;;;;10.50;2.50;;;;;;;;;;5034492;28;98607;-73
2023/06/20 13:18:28;;;;;;;9.75;2.35;;;;;;;;;;5030997;27;99481;-73
2023/06/20 13:20:54;;;;;;;5.95;2.70;;;;;;;;;;5031916;28;97807;-74
2023/06/20 13:23:20;;;;;;;11.98;2.67;;;;;;;;;;5031015;28;98522;-74
2023/06/20 13:25:47;;;;;;;3.13;2.38;;;;;;;;;;5030003;27;99548;-73
2023/06/20 13:28:13;;;;;;;3.67;2.45;;;;;;;;;;5030024;28;99300;-73
2023/06/20 13:30:39;;;;;;;6.18;3.10;;;;;;;;;;5030925;28;100018;-73
2023/06/20 13:33:09;;;;;;;;;;;;;;;;;;5031410;27;100499;-73
2023/06/20 13:35:35;;;;;;;3.53;2.38;;;;;;;;;;5032011;28;118619;-73
2023/06/20 13:38:03;;;;;;;5.40;2.70;;;;;;;;;;5033991;28;99435;-73
2023/06/20 13:40:30;;;;;;;3.67;2.08;;;;;;;;;;5030761;28;98561;-74
2023/06/20 13:42:57;;;;;;;3.17;2.25;;;;;;;;;;5030754;28;100018;-73
2023/06/20 13:45:23;;;;;;;2.63;2.40;;;;;;;;;;5030446;27;98930;-73
2023/06/20 13:47:50;;;;;;;4.70;2.30;;;;;;;;;;5031121;28;98728;-73
2023/06/20 13:50:17;;;;;;;3.40;2.20;;;;;;;;;;5030513;28;99570;-73
2023/06/20 13:52:43;;;;;;;3.50;2.10;;;;;;;;;;5030077;28;101212;-75
2023/06/20 13:55:11;;;;;;;2.65;2.20;;;;;;;;;;5012758;28;98648;-73
2023/06/20 13:57:37;;;;;;;3.65;2.20;;;;;;;;;;5029394;27;99234;-74
2023/06/20 14:00:10;;;;;;;2.40;2.20;;;;;;;;;;5033273;28;99559;-74
2023/06/20 14:02:37;;;;;;;2.38;2.17;;;;;;;;;;5030232;27;99157;-74
2023/06/20 14:05:04;;;;;;;4.65;2.60;;;;;;;;;;5030183;28;98675;-74
2023/06/20 14:07:32;;;;;;;2.83;2.10;;;;;;;;;;5028761;28;99026;-74
2023/06/20 14:09:59;;;;;;;2.25;2.05;;;;;;;;;;5030823;27;99483;-74
2023/06/20 14:12:25;;;;;;;5.93;2.10;;;;;;;;;;5030109;28;99374;-74
2023/06/20 14:14:52;;;;;;;5.45;2.42;;;;;;;;;;5030161;27;99048;-74
2023/06/20 14:17:19;;;;;;;2.72;1.88;;;;;;;;;;5012124;28;99239;-74
2023/06/20 14:19:45;;;;;;;2.80;2.17;;;;;;;;;;5029794;27;100196;-74
2023/06/20 14:22:11;;;;;;;3.30;2.35;;;;;;;;;;5033267;28;98563;-74
2023/06/20 14:24:38;;;;;;;6.85;2.20;;;;;;;;;;5012476;28;100526;-74
2023/06/20 14:27:05;;;;;;;9.90;2.30;;;;;;;;;;5029338;28;98605;-73
2023/06/20 14:29:32;;;;;;;2.42;2.00;;;;;;;;;;5030038;28;98846;-74
2023/06/20 14:31:58;;;;;;;2.25;2.03;;;;;;;;;;5029827;28;99215;-74